Time;durP1;ratioP1;P1;durP2;ratioP2;P2;SDS_P1;SDS_P2;PMS_P1;PMS_P2;Temp;Humidity;BMP_temperature;BMP_pressure;BME280_temperature;BME280_humidity;BME280_pressure;Samples;Min_cycle;Max_cycle;Signal;HPM_P1;HPM_P2
2021/01/18 00:00:52;;;;;;;35.35;23.15;;;0.80;99.90;;;;;;5092791;28;20193;-44
2021/01/18 00:03:18;;;;;;;37.88;23.30;;;0.70;99.90;;;;;;5094871;28;20269;-44
2021/01/18 00:05:45;;;;;;;37.90;24.35;;;0.80;99.90;;;;;;5096339;28;20264;-45
2021/01/18 00:08:12;;;;;;;37.75;22.05;;;0.80;99.90;;;;;;5095856;28;20278;-45
2021/01/18 00:10:39;;;;;;;34.85;22.83;;;0.60;99.90;;;;;;5097741;28;20254;-44
2021/01/18 00:13:05;;;;;;;36.30;23.35;;;0.20;99.90;;;;;;5098976;28;20457;-45
2021/01/18 00:15:32;;;;;;;38.55;22.88;;;0.80;99.90;;;;;;5098344;28;20202;-45
2021/01/18 00:17:58;;;;;;;43.03;26.35;;;0.80;99.90;;;;;;5098689;28;20219;-46
2021/01/18 00:20:25;;;;;;;36.22;23.90;;;0.80;99.90;;;;;;5098477;28;20187;-46
2021/01/18 00:22:52;;;;;;;33.42;23.58;;;0.50;99.90;;;;;;5097757;28;20186;-45
2021/01/18 00:25:22;;;;;;;34.60;23.92;;;0.80;99.90;;;;;;5113531;28;20200;-46
2021/01/18 00:27:49;;;;;;;37.83;23.45;;;0.50;99.90;;;;;;5097410;28;20210;-45
2021/01/18 00:30:18;;;;;;;40.45;23.85;;;0.50;99.90;;;;;;5096302;28;20246;-45
2021/01/18 00:32:45;;;;;;;38.83;24.33;;;0.60;99.90;;;;;;5097343;28;20196;-46
2021/01/18 00:35:13;;;;;;;41.75;24.67;;;0.00;99.90;;;;;;5097406;28;20219;-46
2021/01/18 00:37:41;;;;;;;45.67;24.90;;;0.40;99.90;;;;;;5096153;28;20634;-45
2021/01/18 00:40:10;;;;;;;41.95;24.98;;;0.30;99.90;;;;;;5098594;28;20183;-46
2021/01/18 00:42:38;;;;;;;35.10;23.55;;;0.50;99.90;;;;;;5099710;28;20205;-45
2021/01/18 00:45:06;;;;;;;36.13;23.85;;;0.40;99.90;;;;;;5099514;28;20203;-45
2021/01/18 00:47:38;;;;;;;36.83;23.17;;;0.10;99.90;;;;;;5097164;28;20285;-45
2021/01/18 00:50:05;;;;;;;40.42;24.20;;;0.10;99.90;;;;;;5094124;28;20231;-46
2021/01/18 00:52:32;;;;;;;37.67;24.98;;;0.10;99.90;;;;;;5093590;28;20819;-45
2021/01/18 00:54:59;;;;;;;38.30;22.70;;;0.10;99.90;;;;;;5095907;28;20718;-45
2021/01/18 00:57:38;;;;;;;36.28;23.75;;;0.10;99.90;;;;;;5094260;28;20220;-44
2021/01/18 01:00:08;;;;;;;36.00;24.83;;;0.20;99.90;;;;;;5094863;28;20294;-45
2021/01/18 01:02:37;;;;;;;35.35;23.13;;;0.20;99.90;;;;;;5094725;28;20821;-45
2021/01/18 01:05:05;;;;;;;36.05;24.30;;;0.20;99.90;;;;;;5093742;28;20195;-46
2021/01/18 01:07:37;;;;;;;34.65;22.70;;;0.10;99.90;;;;;;5094766;28;20250;-46
2021/01/18 01:10:05;;;;;;;32.70;22.25;;;0.00;99.90;;;;;;5094546;28;20248;-46
2021/01/18 01:12:31;;;;;;;37.72;24.60;;;0.40;99.90;;;;;;5094909;28;20685;-46
2021/01/18 01:14:59;;;;;;;36.17;23.48;;;-0.10;99.90;;;;;;5094564;28;20223;-45
2021/01/18 01:17:25;;;;;;;34.10;24.63;;;-0.50;99.90;;;;;;5095945;28;20547;-45
2021/01/18 01:19:52;;;;;;;33.30;21.98;;;0.00;99.90;;;;;;5096264;28;20203;-45
2021/01/18 01:22:18;;;;;;;37.50;22.42;;;0.10;99.90;;;;;;5095732;28;20191;-47
2021/01/18 01:24:45;;;;;;;39.40;23.45;;;-0.60;99.90;;;;;;5095450;28;20359;-47
2021/01/18 01:27:11;;;;;;;41.15;24.73;;;-0.60;99.90;;;;;;5095697;28;20652;-46
2021/01/18 01:29:38;;;;;;;36.72;21.23;;;-0.10;99.90;;;;;;5095133;28;20219;-46
2021/01/18 01:32:06;;;;;;;32.50;22.25;;;-0.10;99.90;;;;;;5095120;28;20680;-45
2021/01/18 01:34:33;;;;;;;39.08;22.38;;;0.10;99.90;;;;;;5096057;28;20586;-45
2021/01/18 01:37:00;;;;;;;36.60;22.58;;;-0.10;99.90;;;;;;5095826;28;20396;-45
2021/01/18 01:39:27;;;;;;;32.53;21.70;;;0.10;99.90;;;;;;5096057;28;20222;-45
2021/01/18 01:41:53;;;;;;;36.70;22.85;;;-0.10;99.90;;;;;;5095245;28;20717;-46
2021/01/18 01:44:20;;;;;;;33.22;21.10;;;-0.10;99.90;;;;;;5093873;28;20611;-46
2021/01/18 01:46:47;;;;;;;39.20;24.08;;;-0.20;99.90;;;;;;5094975;28;20196;-46
2021/01/18 01:49:15;;;;;;;37.00;21.73;;;0.20;99.90;;;;;;5094620;28;20269;-46
2021/01/18 01:51:43;;;;;;;38.03;23.10;;;0.00;99.90;;;;;;5095673;28;20651;-46
2021/01/18 01:54:10;;;;;;;38.65;22.25;;;0.10;99.90;;;;;;5093990;28;20216;-45
2021/01/18 01:56:36;;;;;;;38.10;23.30;;;-0.70;99.90;;;;;;5094749;28;20236;-46
2021/01/18 01:59:04;;;;;;;40.38;22.55;;;0.00;99.90;;;;;;5093696;28;20218;-45
2021/01/18 02:01:31;;;;;;;41.75;22.98;;;0.00;99.90;;;;;;5093844;28;20192;-46
2021/01/18 02:03:58;;;;;;;36.05;22.73;;;-0.20;99.90;;;;;;5093450;28;20195;-46
2021/01/18 02:06:26;;;;;;;31.77;22.02;;;0.00;99.90;;;;;;5093538;28;20682;-46
2021/01/18 02:08:52;;;;;;;36.08;21.02;;;-0.10;99.90;;;;;;5093218;28;20270;-46
2021/01/18 02:11:19;;;;;;;39.30;23.52;;;-0.10;99.90;;;;;;5093455;28;20207;-46
2021/01/18 02:14:12;;;;;;;37.25;24.08;;;0.00;99.90;;;;;;5092102;28;20207;-46
2021/01/18 02:16:48;;;;;;;33.08;22.15;;;-0.20;99.90;;;;;;5091631;28;20242;-46
2021/01/18 02:19:53;;;;;;;36.03;24.00;;;-0.30;99.90;;;;;;5093334;28;20221;-46
2021/01/18 02:22:45;;;;;;;33.45;21.85;;;-0.10;99.90;;;;;;5092909;28;20252;-46
2021/01/18 02:25:32;;;;;;;33.35;20.38;;;-0.10;99.90;;;;;;5092505;28;20191;-46
2021/01/18 02:28:32;;;;;;;31.05;21.70;;;-0.70;99.90;;;;;;5093670;28;20223;-46
2021/01/18 02:31:42;;;;;;;35.40;20.58;;;-0.20;99.90;;;;;;5094090;28;20302;-46
2021/01/18 02:34:38;;;;;;;35.83;22.08;;;0.00;99.90;;;;;;5092924;28;20259;-46
2021/01/18 02:37:48;;;;;;;34.65;20.45;;;-0.20;99.90;;;;;;5093182;28;20569;-46
2021/01/18 02:40:23;;;;;;;39.53;24.27;;;-0.40;99.90;;;;;;5092753;28;20647;-46
2021/01/18 02:42:54;;;;;;;34.80;20.58;;;-0.20;99.90;;;;;;5092584;28;20236;-46
2021/01/18 02:45:23;;;;;;;36.67;20.92;;;-0.10;99.90;;;;;;5092974;28;20247;-46
2021/01/18 02:47:50;;;;;;;32.42;21.15;;;-0.20;99.90;;;;;;5092849;28;20264;-46
2021/01/18 02:50:18;;;;;;;42.17;22.70;;;0.00;99.90;;;;;;5094540;28;20226;-46
2021/01/18 02:52:46;;;;;;;37.42;23.17;;;-0.30;99.90;;;;;;5094646;28;20329;-46
2021/01/18 02:55:16;;;;;;;35.08;20.27;;;0.00;99.90;;;;;;5095656;28;20195;-46
2021/01/18 02:57:47;;;;;;;35.95;22.00;;;-0.20;99.90;;;;;;5096238;28;20231;-46
2021/01/18 03:00:17;;;;;;;38.13;22.45;;;0.10;99.90;;;;;;5093998;28;20210;-45
2021/01/18 03:02:58;;;;;;;37.60;21.65;;;0.10;99.90;;;;;;5093614;28;20186;-46
2021/01/18 03:05:39;;;;;;;38.10;22.60;;;0.30;99.90;;;;;;5093550;28;20188;-45
2021/01/18 03:08:16;;;;;;;36.72;21.48;;;0.30;99.90;;;;;;5092891;28;20219;-46
2021/01/18 03:10:50;;;;;;;39.53;22.60;;;0.40;99.90;;;;;;5092643;28;20251;-46
2021/01/18 03:13:22;;;;;;;37.03;21.75;;;0.10;99.90;;;;;;5092811;28;20603;-46
2021/01/18 03:15:56;;;;;;;35.60;23.05;;;0.10;99.90;;;;;;5081136;28;20606;-46
2021/01/18 03:18:24;;;;;;;40.45;23.88;;;0.20;99.90;;;;;;5072430;28;20216;-47
2021/01/18 03:20:51;;;;;;;32.58;21.27;;;0.40;99.90;;;;;;5072326;28;20727;-46
2021/01/18 03:23:19;;;;;;;39.65;23.25;;;0.20;99.90;;;;;;5072289;28;20203;-46
2021/01/18 03:25:47;;;;;;;35.00;22.15;;;0.30;99.90;;;;;;5072346;28;20196;-47
2021/01/18 03:28:13;;;;;;;38.13;22.42;;;0.30;99.90;;;;;;5072180;28;20209;-46
2021/01/18 03:30:40;;;;;;;34.20;22.42;;;0.30;99.90;;;;;;5072744;28;20284;-44
2021/01/18 03:33:06;;;;;;;38.45;23.20;;;0.50;99.90;;;;;;5077232;28;20656;-44
2021/01/18 03:35:33;;;;;;;35.00;21.48;;;0.30;99.90;;;;;;5077934;28;20222;-44
2021/01/18 03:38:00;;;;;;;37.00;23.02;;;0.50;99.90;;;;;;5076328;28;20268;-45
2021/01/18 03:40:28;;;;;;;34.72;22.67;;;0.40;99.90;;;;;;5079657;28;20191;-45
2021/01/18 03:42:57;;;;;;;36.53;22.77;;;0.40;99.90;;;;;;5078562;28;20207;-45
2021/01/18 03:45:24;;;;;;;35.65;22.50;;;0.50;99.90;;;;;;5077467;28;20191;-45
2021/01/18 03:47:50;;;;;;;43.67;22.75;;;0.60;99.90;;;;;;5076100;28;20705;-45
2021/01/18 03:50:17;;;;;;;40.08;22.20;;;0.30;99.90;;;;;;5075945;28;20234;-46
2021/01/18 03:52:46;;;;;;;38.70;22.92;;;0.50;99.90;;;;;;5075902;28;20199;-45
2021/01/18 03:55:13;;;;;;;32.97;23.13;;;0.50;99.90;;;;;;5076117;28;20187;-45
2021/01/18 03:57:41;;;;;;;36.47;22.77;;;0.50;99.90;;;;;;5075813;28;20227;-45
2021/01/18 04:00:08;;;;;;;35.05;22.58;;;0.50;99.90;;;;;;5076100;28;20191;-46
2021/01/18 04:02:35;;;;;;;33.58;22.02;;;0.50;99.90;;;;;;5075702;28;20222;-45
2021/01/18 04:05:01;;;;;;;33.60;21.70;;;0.30;99.90;;;;;;5091579;28;20207;-45
2021/01/18 04:07:28;;;;;;;33.60;21.52;;;0.60;99.90;;;;;;5075384;28;20230;-46
2021/01/18 04:09:54;;;;;;;33.28;22.48;;;0.50;99.90;;;;;;5079681;22;20229;-49
2021/01/18 04:12:21;;;;;;;37.83;24.23;;;0.40;99.90;;;;;;5054421;28;20192;-48
2021/01/18 04:14:49;;;;;;;31.52;21.38;;;0.40;99.90;;;;;;5054356;28;20266;-48
2021/01/18 04:17:16;;;;;;;44.88;24.70;;;0.50;99.90;;;;;;5054472;28;20274;-48
2021/01/18 04:19:43;;;;;;;35.80;22.45;;;0.60;99.90;;;;;;5054650;28;20213;-48
2021/01/18 04:22:10;;;;;;;37.38;22.33;;;0.30;99.90;;;;;;5054190;28;20206;-48
2021/01/18 04:24:36;;;;;;;35.55;23.02;;;0.40;99.90;;;;;;5053933;28;20278;-48
2021/01/18 04:27:04;;;;;;;35.17;21.30;;;0.40;99.90;;;;;;5054289;28;20200;-48
2021/01/18 04:29:30;;;;;;;39.97;24.23;;;0.40;99.90;;;;;;5054024;28;20411;-49
2021/01/18 04:31:58;;;;;;;34.28;21.75;;;0.70;99.90;;;;;;5052770;28;20195;-49
2021/01/18 04:34:24;;;;;;;38.70;23.02;;;-0.10;99.90;;;;;;5052299;28;20222;-48
2021/01/18 04:36:51;;;;;;;38.55;24.08;;;0.60;99.90;;;;;;5053710;28;20198;-48
2021/01/18 04:39:17;;;;;;;38.90;23.60;;;0.40;99.90;;;;;;5054323;28;20681;-48
2021/01/18 04:41:45;;;;;;;37.03;23.50;;;0.50;99.90;;;;;;5054181;28;20266;-49
2021/01/18 04:44:13;;;;;;;35.05;21.92;;;0.50;99.90;;;;;;5053767;28;20190;-49
2021/01/18 04:46:43;;;;;;;39.15;23.05;;;0.50;99.90;;;;;;5053888;28;20276;-48
2021/01/18 04:49:10;;;;;;;34.90;22.35;;;0.50;99.90;;;;;;5053412;28;20266;-47
2021/01/18 04:51:43;;;;;;;32.30;21.25;;;0.40;99.90;;;;;;5053620;28;20231;-48
2021/01/18 04:54:17;;;;;;;43.67;24.23;;;0.50;99.90;;;;;;5053185;28;20552;-47
2021/01/18 04:57:10;;;;;;;34.63;22.50;;;0.50;99.90;;;;;;5053539;28;20211;-48
2021/01/18 04:59:43;;;;;;;39.47;23.33;;;0.50;99.90;;;;;;5053323;28;20213;-48
2021/01/18 05:02:14;;;;;;;35.90;22.73;;;0.50;99.90;;;;;;5053320;28;20216;-49
2021/01/18 05:04:43;;;;;;;33.58;21.73;;;0.60;99.90;;;;;;5053307;28;20561;-49
2021/01/18 05:07:48;;;;;;;35.20;22.30;;;0.60;99.90;;;;;;5053080;28;20184;-48
2021/01/18 05:10:25;;;;;;;33.72;22.05;;;0.40;99.90;;;;;;5033321;28;20356;-49
2021/01/18 05:12:56;;;;;;;37.05;23.17;;;0.50;99.90;;;;;;5033101;28;20199;-49
2021/01/18 05:15:24;;;;;;;36.00;23.75;;;0.60;99.90;;;;;;5041279;28;20193;-49
2021/01/18 05:17:58;;;;;;;35.50;22.25;;;0.50;99.90;;;;;;5053016;28;20192;-49
2021/01/18 05:20:25;;;;;;;38.35;24.17;;;0.50;99.90;;;;;;5053423;28;20189;-49
2021/01/18 05:22:54;;;;;;;38.13;23.55;;;-0.10;99.90;;;;;;5053013;28;20204;-49
2021/01/18 05:25:21;;;;;;;35.63;22.85;;;0.30;99.90;;;;;;5053444;28;20561;-49
2021/01/18 05:27:58;;;;;;;37.55;25.08;;;0.50;99.90;;;;;;5052840;28;20220;-49
2021/01/18 05:30:26;;;;;;;42.00;26.30;;;0.50;99.90;;;;;;5052537;28;20208;-49
2021/01/18 05:33:09;;;;;;;37.53;22.85;;;0.60;99.90;;;;;;5052480;28;20195;-48
2021/01/18 05:35:38;;;;;;;34.97;22.83;;;0.70;99.90;;;;;;5052745;28;20202;-48
2021/01/18 05:38:09;;;;;;;35.63;21.85;;;0.60;99.90;;;;;;5052668;28;20219;-49
2021/01/18 05:40:39;;;;;;;34.95;24.38;;;0.80;99.90;;;;;;5052875;28;20202;-49
2021/01/18 05:43:06;;;;;;;37.97;25.38;;;0.70;99.90;;;;;;5052558;28;20197;-48
2021/01/18 05:45:34;;;;;;;42.08;24.40;;;0.60;99.90;;;;;;5052557;28;20228;-48
2021/01/18 05:48:02;;;;;;;37.17;23.13;;;0.70;99.90;;;;;;5052392;28;20611;-48
2021/01/18 05:50:29;;;;;;;35.28;24.30;;;0.70;99.90;;;;;;5051785;28;20222;-48
2021/01/18 05:52:57;;;;;;;42.80;24.75;;;0.60;99.90;;;;;;5051927;28;20581;-48
2021/01/18 05:55:26;;;;;;;37.53;25.40;;;0.90;99.90;;;;;;5052248;28;20204;-49
2021/01/18 05:57:55;;;;;;;38.63;24.52;;;0.70;99.90;;;;;;5052327;28;20199;-49
2021/01/18 06:00:44;;;;;;;39.22;24.77;;;0.70;99.90;;;;;;5051883;28;20189;-48
2021/01/18 06:03:12;;;;;;;38.65;24.10;;;0.80;99.90;;;;;;5052340;28;20211;-48
2021/01/18 06:05:39;;;;;;;42.78;25.52;;;0.80;99.90;;;;;;5052342;28;20516;-46
2021/01/18 06:08:15;;;;;;;44.42;26.15;;;0.80;99.90;;;;;;5052712;28;20233;-47
2021/01/18 06:10:42;;;;;;;41.97;26.38;;;0.80;99.90;;;;;;5051196;28;20271;-47
2021/01/18 06:13:23;;;;;;;40.40;26.40;;;0.80;99.90;;;;;;5050558;28;20201;-47
2021/01/18 06:15:53;;;;;;;38.90;25.95;;;0.90;99.90;;;;;;5050710;28;20245;-48
2021/01/18 06:18:22;;;;;;;43.13;27.58;;;0.80;99.90;;;;;;5050833;28;20247;-48
2021/01/18 06:20:57;;;;;;;44.08;27.52;;;0.70;99.90;;;;;;5050712;28;20195;-46
2021/01/18 06:23:25;;;;;;;47.05;28.80;;;0.80;99.90;;;;;;5050074;28;20194;-47
2021/01/18 06:25:52;;;;;;;46.97;29.75;;;0.90;99.90;;;;;;5050353;28;20190;-48
2021/01/18 06:28:26;;;;;;;39.05;25.42;;;0.70;99.90;;;;;;5050881;28;20218;-48
2021/01/18 06:30:57;;;;;;;41.08;25.98;;;0.80;99.90;;;;;;5050567;28;20217;-47
2021/01/18 06:33:36;;;;;;;42.58;26.20;;;0.90;99.90;;;;;;5050403;28;20224;-46
2021/01/18 06:36:11;;;;;;;38.40;26.35;;;0.70;99.90;;;;;;5050437;28;20205;-47
2021/01/18 06:38:39;;;;;;;40.47;26.73;;;0.90;99.90;;;;;;5050506;28;20330;-47
2021/01/18 06:41:07;;;;;;;43.50;27.65;;;0.80;99.90;;;;;;5050661;28;20250;-46
2021/01/18 06:43:35;;;;;;;40.67;26.20;;;0.80;99.90;;;;;;5048768;28;20209;-47
2021/01/18 06:46:15;;;;;;;43.15;27.25;;;0.70;99.90;;;;;;5050507;28;20287;-47
2021/01/18 06:48:43;;;;;;;42.83;26.90;;;0.90;99.90;;;;;;5049834;28;20287;-47
2021/01/18 06:51:13;;;;;;;39.80;26.90;;;1.00;99.90;;;;;;5048363;28;20229;-47
2021/01/18 06:53:43;;;;;;;42.60;26.95;;;0.80;99.90;;;;;;5049704;28;20628;-47
2021/01/18 06:56:49;;;;;;;39.58;25.95;;;0.90;99.90;;;;;;5050119;28;20205;-49
2021/01/18 06:59:38;;;;;;;43.33;26.45;;;1.00;99.90;;;;;;5050384;28;20219;-48
2021/01/18 07:02:20;;;;;;;38.80;24.48;;;0.90;99.90;;;;;;5050041;28;20535;-47
2021/01/18 07:04:47;;;;;;;39.80;27.27;;;0.90;99.90;;;;;;5050046;28;20209;-47
2021/01/18 07:07:24;;;;;;;41.90;24.50;;;0.20;99.90;;;;;;5049855;28;20197;-47
2021/01/18 07:09:57;;;;;;;42.97;27.23;;;0.80;99.90;;;;;;5027465;28;651837;-48
2021/01/18 07:12:25;;;;;;;37.70;25.63;;;0.60;99.90;;;;;;5050948;28;20928;-49
2021/01/18 07:15:04;;;;;;;44.20;26.40;;;0.80;99.90;;;;;;5050342;28;20199;-48
2021/01/18 07:17:52;;;;;;;39.80;26.40;;;0.80;99.90;;;;;;5032394;28;20227;-47
2021/01/18 07:20:26;;;;;;;40.90;26.77;;;1.20;99.90;;;;;;5050211;28;20534;-47
2021/01/18 07:23:23;;;;;;;39.88;25.23;;;0.90;99.90;;;;;;5049830;28;20189;-47
2021/01/18 07:26:12;;;;;;;43.05;25.75;;;1.00;99.90;;;;;;5043609;28;20231;-48
2021/01/18 07:28:41;;;;;;;46.47;26.73;;;0.90;99.90;;;;;;5017229;28;20650;-46
2021/01/18 07:31:08;;;;;;;37.92;25.65;;;1.00;99.90;;;;;;5050277;28;20305;-47
2021/01/18 07:33:35;;;;;;;38.53;25.25;;;1.00;99.90;;;;;;5050008;28;20206;-47
2021/01/18 07:36:01;;;;;;;43.38;26.13;;;1.00;99.90;;;;;;5050476;28;20204;-47
2021/01/18 07:38:37;;;;;;;44.88;26.75;;;0.30;99.90;;;;;;5048888;28;20223;-48
2021/01/18 07:41:15;;;;;;;39.13;26.55;;;1.00;99.90;;;;;;5050157;28;20668;-49
2021/01/18 07:43:43;;;;;;;38.65;24.77;;;1.10;99.90;;;;;;5049701;28;20196;-47
2021/01/18 07:46:41;;;;;;;46.03;28.85;;;0.30;99.90;;;;;;5049730;28;20267;-48
2021/01/18 07:49:32;;;;;;;38.88;26.17;;;0.90;99.90;;;;;;5049721;28;20226;-48
2021/01/18 07:52:19;;;;;;;39.42;25.73;;;0.90;99.90;;;;;;5050222;28;20324;-48
2021/01/18 07:54:46;;;;;;;41.22;26.88;;;1.00;99.90;;;;;;5049746;28;20242;-47
2021/01/18 07:57:36;;;;;;;46.83;28.00;;;0.90;99.90;;;;;;5050050;28;20197;-49
2021/01/18 08:00:30;;;;;;;53.47;30.60;;;0.80;99.90;;;;;;5050554;28;20690;-48
2021/01/18 08:03:27;;;;;;;43.85;28.55;;;0.70;99.90;;;;;;5049876;28;20200;-47
2021/01/18 08:06:15;;;;;;;41.55;27.67;;;0.80;99.90;;;;;;5050226;28;20293;-48
2021/01/18 08:08:42;;;;;;;55.35;29.63;;;1.20;99.90;;;;;;5049881;28;20583;-47
2021/01/18 08:11:19;;;;;;;47.85;27.38;;;0.20;99.90;;;;;;5049600;28;20205;-48
2021/01/18 08:13:55;;;;;;;47.70;29.33;;;0.80;99.90;;;;;;5049608;28;20242;-48
2021/01/18 08:16:41;;;;;;;43.85;28.10;;;0.80;99.90;;;;;;5049560;28;20211;-48
2021/01/18 08:19:12;;;;;;;46.38;28.10;;;0.40;99.90;;;;;;5049836;28;20591;-50
2021/01/18 08:21:59;;;;;;;42.63;29.52;;;0.90;99.90;;;;;;5048211;28;20208;-48
2021/01/18 08:24:54;;;;;;;43.38;27.25;;;1.00;99.90;;;;;;5051919;28;20293;-48
2021/01/18 08:27:38;;;;;;;47.38;31.17;;;0.90;99.90;;;;;;5035841;28;20200;-48
2021/01/18 08:30:39;;;;;;;46.72;31.40;;;1.00;99.90;;;;;;5053646;28;20226;-48
2021/01/18 08:33:09;;;;;;;47.78;32.13;;;1.10;99.90;;;;;;5047327;28;20687;-47
2021/01/18 08:35:43;;;;;;;47.17;30.15;;;1.10;99.90;;;;;;5053598;28;20192;-46
2021/01/18 08:38:19;;;;;;;41.28;28.88;;;1.30;99.90;;;;;;5053546;28;20270;-47
2021/01/18 08:40:49;;;;;;;46.63;29.45;;;1.30;99.90;;;;;;5053371;28;20610;-48
2021/01/18 08:43:17;;;;;;;38.90;26.77;;;1.50;99.90;;;;;;5053516;28;20212;-47
2021/01/18 08:45:47;;;;;;;39.85;29.20;;;1.30;99.90;;;;;;5052012;28;20208;-49
2021/01/18 08:48:16;;;;;;;44.53;29.65;;;1.20;99.90;;;;;;5053512;28;20235;-48
2021/01/18 08:50:47;;;;;;;43.35;29.00;;;1.30;99.90;;;;;;5053633;28;20309;-47
2021/01/18 08:53:30;;;;;;;49.72;30.33;;;1.40;99.90;;;;;;5052535;28;20330;-49
2021/01/18 08:55:58;;;;;;;42.90;29.55;;;0.70;99.90;;;;;;5053362;28;20315;-48
2021/01/18 08:58:41;;;;;;;45.90;30.50;;;1.00;99.90;;;;;;5053944;28;20216;-49
2021/01/18 09:01:15;;;;;;;50.00;29.38;;;1.10;99.90;;;;;;5052880;28;20596;-47
2021/01/18 09:03:42;;;;;;;41.70;29.40;;;1.10;99.90;;;;;;5052805;28;20196;-48
2021/01/18 09:06:10;;;;;;;42.35;29.25;;;1.00;99.90;;;;;;5052995;28;20203;-47
2021/01/18 09:08:39;;;;;;;48.22;29.83;;;1.20;99.90;;;;;;5052749;28;20231;-47
2021/01/18 09:11:08;;;;;;;37.33;25.48;;;0.90;99.90;;;;;;5035174;28;20226;-47
2021/01/18 09:13:36;;;;;;;72.60;45.35;;;0.90;99.90;;;;;;5052933;28;20724;-47
2021/01/18 09:16:05;;;;;;;40.88;28.70;;;1.00;99.90;;;;;;5052590;28;20202;-49
2021/01/18 09:18:34;;;;;;;43.22;29.23;;;1.00;99.90;;;;;;5052775;28;20216;-47
2021/01/18 09:21:01;;;;;;;42.25;28.08;;;1.00;99.90;;;;;;5052463;28;20212;-49
2021/01/18 09:23:28;;;;;;;47.58;28.42;;;1.10;99.90;;;;;;5052309;28;20204;-48
2021/01/18 09:26:05;;;;;;;45.05;30.67;;;1.10;99.90;;;;;;5052568;28;20270;-47
2021/01/18 09:28:32;;;;;;;41.60;28.08;;;1.50;99.90;;;;;;5052862;28;20216;-47
2021/01/18 09:31:08;;;;;;;40.90;26.85;;;1.70;99.90;;;;;;5052526;28;20214;-47
2021/01/18 09:33:35;;;;;;;44.95;27.40;;;1.80;99.90;;;;;;5052671;28;20221;-46
2021/01/18 09:36:02;;;;;;;38.40;27.52;;;1.70;99.90;;;;;;5051237;28;20278;-48
2021/01/18 09:38:29;;;;;;;43.22;28.48;;;2.00;99.90;;;;;;5052300;28;20739;-48
2021/01/18 09:40:55;;;;;;;41.67;30.45;;;1.80;99.90;;;;;;5052873;28;20237;-49
2021/01/18 09:43:22;;;;;;;48.17;27.92;;;2.20;99.90;;;;;;5051922;28;20269;-48
2021/01/18 09:45:55;;;;;;;45.05;32.65;;;2.00;99.90;;;;;;5051957;28;20621;-50
2021/01/18 09:48:25;;;;;;;45.63;31.25;;;2.10;99.90;;;;;;5034293;28;20226;-47
2021/01/18 09:50:59;;;;;;;44.17;29.17;;;2.20;99.90;;;;;;5051214;28;20231;-47
2021/01/18 09:53:27;;;;;;;48.72;31.08;;;1.90;99.90;;;;;;5051772;28;20214;-48
2021/01/18 09:55:56;;;;;;;43.53;29.90;;;2.00;99.90;;;;;;5052176;28;20269;-49
2021/01/18 09:58:31;;;;;;;41.85;29.45;;;2.20;99.90;;;;;;5051954;28;20233;-48
2021/01/18 10:01:00;;;;;;;43.25;29.95;;;2.10;99.90;;;;;;5052720;28;20229;-48
2021/01/18 10:03:28;;;;;;;41.38;29.35;;;2.00;99.90;;;;;;5050532;28;20278;-47
2021/01/18 10:06:05;;;;;;;46.60;30.42;;;1.80;99.90;;;;;;5052117;28;20192;-47
2021/01/18 10:08:35;;;;;;;54.90;31.63;;;2.00;99.90;;;;;;5086219;22;20222;-47
2021/01/18 10:11:02;;;;;;;45.83;30.48;;;2.10;99.90;;;;;;5113843;28;20669;-47
2021/01/18 10:13:28;;;;;;;46.90;32.47;;;1.70;99.90;;;;;;5114681;28;20280;-45
2021/01/18 10:16:05;;;;;;;42.13;31.92;;;1.20;99.90;;;;;;5115851;27;20204;-45
2021/01/18 10:18:34;;;;;;;49.75;32.83;;;2.00;99.90;;;;;;5110692;28;20214;-47
2021/01/18 10:21:02;;;;;;;47.00;31.20;;;2.10;99.90;;;;;;5093765;28;20187;-46
2021/01/18 10:23:33;;;;;;;48.38;30.92;;;2.20;99.90;;;;;;5092503;28;20278;-45
2021/01/18 10:26:22;;;;;;;43.75;29.35;;;2.10;99.90;;;;;;5093331;28;20278;-46
2021/01/18 10:28:58;;;;;;;47.20;32.22;;;2.50;99.90;;;;;;5093247;28;20823;-46
2021/01/18 10:31:26;;;;;;;46.10;32.00;;;2.20;99.90;;;;;;5093267;28;20237;-46
2021/01/18 10:34:13;;;;;;;46.88;31.58;;;2.20;99.90;;;;;;5092505;28;20191;-46
2021/01/18 10:36:41;;;;;;;44.03;29.88;;;2.20;99.90;;;;;;5092894;28;20285;-47
2021/01/18 10:39:08;;;;;;;45.38;31.33;;;2.60;99.90;;;;;;5093101;28;20266;-47
2021/01/18 10:41:35;;;;;;;41.58;29.85;;;2.40;99.90;;;;;;5092980;28;20659;-46
2021/01/18 10:44:05;;;;;;;45.33;30.65;;;2.70;99.90;;;;;;5092673;28;20537;-46
2021/01/18 10:46:32;;;;;;;46.15;30.83;;;2.50;99.90;;;;;;5093038;28;20199;-45
2021/01/18 10:49:00;;;;;;;41.47;28.40;;;2.60;99.90;;;;;;5094057;28;20218;-46
2021/01/18 10:51:27;;;;;;;46.90;31.27;;;2.60;99.90;;;;;;5093486;28;20740;-46
2021/01/18 10:53:58;;;;;;;47.65;31.50;;;2.60;99.90;;;;;;5092960;28;20201;-45
2021/01/18 10:56:31;;;;;;;47.00;30.33;;;2.60;99.90;;;;;;5093576;28;20194;-46
2021/01/18 10:58:58;;;;;;;47.15;31.13;;;3.00;99.90;;;;;;5092558;28;20618;-45
2021/01/18 11:01:25;;;;;;;52.70;31.83;;;3.10;99.90;;;;;;5092507;28;20292;-45
2021/01/18 11:03:52;;;;;;;45.42;29.83;;;2.60;99.90;;;;;;5092317;28;20668;-46
2021/01/18 11:06:20;;;;;;;43.25;31.30;;;2.00;99.90;;;;;;5092454;28;20210;-46
2021/01/18 11:08:51;;;;;;;49.45;32.42;;;2.80;99.90;;;;;;5092393;28;20234;-46
2021/01/18 11:11:21;;;;;;;51.95;35.53;;;2.80;99.90;;;;;;5092906;28;20207;-46
2021/01/18 11:13:48;;;;;;;55.03;33.45;;;2.40;99.90;;;;;;5092344;28;20598;-46
2021/01/18 11:16:17;;;;;;;51.45;33.92;;;2.50;99.90;;;;;;5092876;28;20203;-46
2021/01/18 11:18:44;;;;;;;49.30;33.75;;;2.50;99.90;;;;;;5092470;28;20206;-47
2021/01/18 11:21:11;;;;;;;44.28;30.50;;;2.50;99.90;;;;;;5093463;28;20616;-47
2021/01/18 11:23:38;;;;;;;49.22;31.13;;;2.50;99.90;;;;;;5092253;28;20240;-46
2021/01/18 11:26:06;;;;;;;50.40;31.98;;;2.50;99.90;;;;;;5093144;28;20209;-45
2021/01/18 11:28:34;;;;;;;46.95;30.60;;;1.70;99.90;;;;;;5093743;28;20217;-46
2021/01/18 11:31:02;;;;;;;50.40;38.50;;;2.50;99.90;;;;;;5095039;28;20210;-45
2021/01/18 11:33:28;;;;;;;47.90;31.75;;;2.60;99.90;;;;;;5096028;28;20190;-47
2021/01/18 11:35:55;;;;;;;46.47;30.52;;;2.20;99.90;;;;;;5096940;28;20194;-46
2021/01/18 11:38:21;;;;;;;55.47;33.17;;;2.70;99.90;;;;;;5095545;28;20186;-46
2021/01/18 11:40:48;;;;;;;48.72;30.55;;;2.80;99.90;;;;;;5095333;28;20647;-46
2021/01/18 11:43:15;;;;;;;45.00;30.65;;;2.80;99.90;;;;;;5095223;28;20203;-45
2021/01/18 11:45:43;;;;;;;51.25;31.83;;;2.90;99.90;;;;;;5094187;28;20197;-47
2021/01/18 11:48:10;;;;;;;49.65;32.42;;;2.80;99.90;;;;;;5092031;28;20699;-46
2021/01/18 11:50:36;;;;;;;52.92;31.67;;;2.90;99.90;;;;;;5090607;28;20279;-46
2021/01/18 11:53:03;;;;;;;51.35;32.60;;;2.90;99.90;;;;;;5091564;28;20198;-46
2021/01/18 11:55:30;;;;;;;49.15;31.80;;;3.10;99.90;;;;;;5092003;28;20194;-46
2021/01/18 11:57:56;;;;;;;50.28;30.98;;;2.90;99.90;;;;;;5091490;28;20194;-47
2021/01/18 12:00:25;;;;;;;46.25;31.50;;;2.90;99.90;;;;;;5095588;28;20221;-45
2021/01/18 12:02:53;;;;;;;54.95;33.15;;;3.20;99.90;;;;;;5095821;28;20264;-47
2021/01/18 12:05:22;;;;;;;50.72;32.50;;;3.10;99.90;;;;;;5094464;28;20195;-46
2021/01/18 12:07:49;;;;;;;51.13;31.65;;;2.80;99.90;;;;;;5095145;28;20190;-46
2021/01/18 12:10:16;;;;;;;48.85;32.15;;;2.90;99.90;;;;;;5095664;28;20301;-46
2021/01/18 12:12:42;;;;;;;51.63;32.05;;;3.30;99.90;;;;;;5095084;28;20705;-45
2021/01/18 12:15:10;;;;;;;47.53;30.65;;;3.30;99.90;;;;;;5095808;28;20197;-45
2021/01/18 12:17:38;;;;;;;50.45;31.88;;;3.10;99.90;;;;;;5095151;28;20226;-45
2021/01/18 12:20:06;;;;;;;53.10;33.28;;;3.10;99.90;;;;;;5096659;28;20317;-46
2021/01/18 12:22:33;;;;;;;50.10;31.45;;;3.00;99.90;;;;;;5095738;28;20621;-45
2021/01/18 12:25:00;;;;;;;53.40;33.85;;;3.10;99.90;;;;;;5096327;28;20194;-46
2021/01/18 12:27:26;;;;;;;54.60;32.95;;;3.40;99.90;;;;;;5097527;28;20187;-47
2021/01/18 12:29:53;;;;;;;46.30;31.67;;;3.10;99.90;;;;;;5097492;28;20301;-45
2021/01/18 12:32:19;;;;;;;55.15;31.83;;;3.00;99.90;;;;;;5098237;28;20218;-45
2021/01/18 12:34:46;;;;;;;49.67;31.25;;;3.10;99.90;;;;;;5098367;28;20227;-46
2021/01/18 12:37:13;;;;;;;55.83;33.88;;;3.50;99.90;;;;;;5098665;28;20207;-46
2021/01/18 12:39:40;;;;;;;63.80;34.88;;;3.10;99.90;;;;;;5099283;28;20241;-46
2021/01/18 12:42:07;;;;;;;58.00;35.10;;;3.50;99.90;;;;;;5098607;28;20243;-47
2021/01/18 12:44:34;;;;;;;52.50;34.50;;;3.00;99.90;;;;;;5097243;28;20198;-45
2021/01/18 12:47:01;;;;;;;53.72;33.40;;;3.30;99.90;;;;;;5094157;28;20245;-46
2021/01/18 12:49:28;;;;;;;56.40;33.25;;;3.40;99.90;;;;;;5095832;28;20219;-46
2021/01/18 12:51:54;;;;;;;57.28;33.40;;;3.70;99.90;;;;;;5095987;28;20207;-46
2021/01/18 12:54:22;;;;;;;67.65;35.92;;;3.60;99.90;;;;;;5095570;28;20221;-46
2021/01/18 12:56:51;;;;;;;51.40;35.50;;;3.70;99.90;;;;;;5096939;28;20195;-47